createdAt,value
2017-02-05T00:00:42.608Z,939.45
2017-02-05T00:01:42.444Z,939.49
2017-02-05T00:02:42.446Z,939.46
2017-02-05T00:03:42.414Z,939.46
2017-02-05T00:04:42.399Z,939.46
2017-02-05T00:05:42.381Z,939.5
2017-02-05T00:06:42.367Z,939.38
2017-02-05T00:07:42.351Z,939.46
2017-02-05T00:08:42.337Z,939.47
2017-02-05T00:09:42.321Z,939.49
2017-02-05T00:10:42.308Z,939.46
2017-02-05T00:11:42.292Z,939.39
2017-02-05T00:12:42.277Z,939.43
2017-02-05T00:13:42.263Z,939.46
2017-02-05T00:14:42.245Z,939.45
2017-02-05T00:15:42.230Z,939.4
2017-02-05T00:16:42.219Z,939.35
2017-02-05T00:17:42.200Z,939.48
2017-02-05T00:18:42.183Z,939.4
2017-02-05T00:19:42.170Z,939.53
2017-02-05T00:20:42.155Z,939.52
2017-02-05T00:21:42.140Z,939.47
2017-02-05T00:22:42.124Z,939.46
2017-02-05T00:23:42.109Z,939.43
2017-02-05T00:24:42.093Z,939.42
2017-02-05T00:25:42.077Z,939.37
2017-02-05T00:26:42.062Z,939.41
2017-02-05T00:27:42.047Z,939.42
2017-02-05T00:28:42.033Z,939.4
2017-02-05T00:29:42.018Z,939.45
2017-02-05T00:30:42.002Z,939.37
2017-02-05T00:31:41.990Z,939.43
2017-02-05T00:32:41.973Z,939.41
2017-02-05T00:33:42.049Z,939.44
2017-02-05T00:34:42.014Z,939.5
2017-02-05T00:35:42.068Z,939.47
2017-02-05T00:36:42.041Z,939.48
2017-02-05T00:37:42.000Z,939.53
2017-02-05T00:38:42.011Z,939.51
2017-02-05T00:39:41.943Z,939.55
2017-02-05T00:40:41.984Z,939.55
2017-02-05T00:41:41.943Z,939.57
2017-02-05T00:42:41.856Z,939.53
2017-02-05T00:43:41.815Z,939.52
2017-02-05T00:44:41.790Z,939.51
2017-02-05T00:45:41.776Z,939.45
2017-02-05T00:46:41.761Z,939.48
2017-02-05T00:47:41.744Z,939.46
2017-02-05T00:48:41.730Z,939.45
2017-02-05T00:49:41.717Z,939.43
2017-02-05T00:50:41.700Z,939.44
2017-02-05T00:51:41.686Z,939.45
2017-02-05T00:52:41.669Z,939.46
2017-02-05T00:53:41.659Z,939.45
2017-02-05T00:54:41.642Z,939.48
2017-02-05T00:55:41.627Z,939.47
2017-02-05T00:56:41.612Z,939.49
2017-02-05T00:57:41.597Z,939.47
2017-02-05T00:58:41.581Z,939.47
2017-02-05T00:59:41.566Z,939.55
2017-02-05T01:00:41.552Z,939.41
2017-02-05T01:01:41.537Z,939.45
2017-02-05T01:02:41.521Z,939.47
2017-02-05T01:03:41.509Z,939.45
2017-02-05T01:04:41.491Z,939.43
2017-02-05T01:05:41.476Z,939.43
2017-02-05T01:06:41.462Z,939.44
2017-02-05T01:07:41.447Z,939.44
2017-02-05T01:08:41.433Z,939.34
2017-02-05T01:09:41.417Z,939.4
2017-02-05T01:10:41.401Z,939.46
2017-02-05T01:11:41.388Z,939.44
2017-02-05T01:12:41.373Z,939.45
2017-02-05T01:13:41.357Z,939.45
2017-02-05T01:14:41.343Z,939.46
2017-02-05T01:15:41.329Z,939.44
2017-02-05T01:16:41.312Z,939.51
2017-02-05T01:17:41.353Z,939.43
2017-02-05T01:18:41.434Z,939.45
2017-02-05T01:19:41.345Z,939.44
2017-02-05T01:20:41.466Z,939.49
2017-02-05T01:21:41.373Z,939.47
2017-02-05T01:22:41.344Z,939.51
2017-02-05T01:23:41.472Z,939.51
2017-02-05T01:24:41.300Z,939.46
2017-02-05T01:25:41.187Z,939.44
2017-02-05T01:26:41.162Z,939.48
2017-02-05T01:27:41.149Z,939.54
2017-02-05T01:28:41.132Z,939.53
2017-02-05T01:29:41.118Z,939.55
2017-02-05T01:30:41.102Z,939.47
2017-02-05T01:31:41.086Z,939.52
2017-02-05T01:32:41.072Z,939.54
2017-02-05T01:33:41.057Z,939.56
2017-02-05T01:34:41.041Z,939.55
2017-02-05T01:35:41.026Z,939.51
2017-02-05T01:36:41.012Z,939.55
2017-02-05T01:37:40.998Z,939.49
2017-02-05T01:38:40.980Z,939.55
2017-02-05T01:39:40.968Z,939.52
2017-02-05T01:40:40.951Z,939.51
2017-02-05T01:41:40.944Z,939.52
2017-02-05T01:42:40.924Z,939.44
2017-02-05T01:43:40.906Z,939.43
2017-02-05T01:44:40.891Z,939.48
2017-02-05T01:45:40.877Z,939.37
2017-02-05T01:46:40.862Z,939.39
2017-02-05T01:47:40.845Z,939.46
2017-02-05T01:48:40.831Z,939.35
2017-02-05T01:49:40.816Z,939.38
2017-02-05T01:50:40.801Z,939.45
2017-02-05T01:51:40.786Z,939.49
2017-02-05T01:52:40.770Z,939.43
2017-02-05T01:53:40.755Z,939.44
2017-02-05T01:54:40.739Z,939.47
2017-02-05T01:55:40.725Z,939.43
2017-02-05T01:56:40.709Z,939.44
2017-02-05T01:57:40.695Z,939.45
2017-02-05T01:58:40.679Z,939.45
2017-02-05T01:59:40.664Z,939.49
2017-02-05T02:00:40.648Z,939.51
2017-02-05T02:01:40.632Z,939.43
2017-02-05T02:02:40.617Z,939.51
2017-02-05T02:03:40.604Z,939.4
2017-02-05T02:04:40.587Z,939.39
2017-02-05T02:05:46.339Z,939.42
2017-02-05T02:06:40.558Z,939.49
2017-02-05T02:07:40.543Z,939.5
2017-02-05T02:08:40.525Z,939.43
2017-02-05T02:09:40.511Z,939.51
2017-02-05T02:10:40.496Z,939.54
2017-02-05T02:11:40.481Z,939.49
2017-02-05T02:12:40.464Z,939.5
2017-02-05T02:13:40.451Z,939.55
2017-02-05T02:14:40.436Z,939.51
2017-02-05T02:15:40.419Z,939.58
2017-02-05T02:16:40.405Z,939.58
2017-02-05T02:17:40.393Z,939.55
2017-02-05T02:18:40.375Z,939.54
2017-02-05T02:19:40.385Z,939.65
2017-02-05T02:20:40.345Z,939.59
2017-02-05T02:21:40.329Z,939.59
2017-02-05T02:22:40.313Z,939.59
2017-02-05T02:23:40.330Z,939.67
2017-02-05T02:24:40.284Z,939.73
2017-02-05T02:25:40.269Z,939.61
2017-02-05T02:26:40.252Z,939.69
2017-02-05T02:27:40.238Z,939.69
2017-02-05T02:28:40.224Z,939.7
2017-02-05T02:29:40.209Z,939.64
2017-02-05T02:30:40.194Z,939.73
2017-02-05T02:31:40.177Z,939.72
2017-02-05T02:32:40.163Z,939.72
2017-02-05T02:33:40.148Z,939.73
2017-02-05T02:34:40.133Z,939.74
2017-02-05T02:35:40.120Z,939.69
2017-02-05T02:36:40.104Z,939.7
2017-02-05T02:37:40.088Z,939.69
2017-02-05T02:38:40.072Z,939.63
2017-02-05T02:39:40.058Z,939.63
2017-02-05T02:40:40.042Z,939.67
2017-02-05T02:41:40.028Z,939.66
2017-02-05T02:42:40.013Z,939.69
2017-02-05T02:43:39.997Z,939.72
2017-02-05T02:44:39.984Z,939.7
2017-02-05T02:45:39.967Z,939.76
2017-02-05T02:46:39.953Z,939.79
2017-02-05T02:47:39.938Z,939.78
2017-02-05T02:48:39.923Z,939.74
2017-02-05T02:49:39.906Z,939.78
2017-02-05T02:50:39.893Z,939.83
2017-02-05T02:51:39.877Z,939.78
2017-02-05T02:52:39.862Z,939.84
2017-02-05T02:53:39.847Z,939.8
2017-02-05T02:54:39.860Z,939.83
2017-02-05T02:55:39.816Z,939.84
2017-02-05T02:56:39.802Z,939.9
2017-02-05T02:57:39.787Z,939.9
2017-02-05T02:58:39.873Z,939.9
2017-02-05T02:59:39.756Z,939.89
2017-02-05T03:00:39.742Z,939.93
2017-02-05T03:01:39.727Z,939.85
2017-02-05T03:02:39.711Z,939.8
2017-02-05T03:03:39.695Z,939.92
2017-02-05T03:04:39.681Z,939.95
2017-02-05T03:05:39.666Z,939.91
2017-02-05T03:06:39.651Z,939.9
2017-02-05T03:07:39.634Z,939.98
2017-02-05T03:08:39.622Z,939.92
2017-02-05T03:09:39.635Z,939.97
2017-02-05T03:10:39.591Z,939.92
2017-02-05T03:11:39.575Z,939.91
2017-02-05T03:12:39.562Z,939.92
2017-02-05T03:13:39.543Z,939.94
2017-02-05T03:14:39.531Z,939.86
2017-02-05T03:15:39.515Z,939.93
2017-02-05T03:16:39.504Z,939.92
2017-02-05T03:17:39.483Z,939.98
2017-02-05T03:18:39.470Z,939.95
2017-02-05T03:19:39.454Z,940.01
2017-02-05T03:20:39.441Z,939.99
2017-02-05T03:21:39.424Z,939.96
2017-02-05T03:22:39.410Z,940.01
2017-02-05T03:23:39.394Z,939.97
2017-02-05T03:24:39.379Z,939.94
2017-02-05T03:25:39.363Z,939.98
2017-02-05T03:26:39.349Z,939.98
2017-02-05T03:27:39.334Z,939.99
2017-02-05T03:28:39.318Z,939.94
2017-02-05T03:29:39.302Z,939.89
2017-02-05T03:30:39.289Z,939.99
2017-02-05T03:31:39.272Z,939.97
2017-02-05T03:32:39.258Z,939.97
2017-02-05T03:33:39.242Z,940.03
2017-02-05T03:34:39.228Z,940.05
2017-02-05T03:35:39.213Z,940.02
2017-02-05T03:36:39.196Z,940.09
2017-02-05T03:37:39.186Z,940.07
2017-02-05T03:38:39.167Z,940.03
2017-02-05T03:39:39.153Z,940.08
2017-02-05T03:40:39.137Z,940.15
2017-02-05T03:41:39.121Z,940.08
2017-02-05T03:42:39.108Z,940.12
2017-02-05T03:43:39.091Z,940.15
2017-02-05T03:44:39.076Z,940.17
2017-02-05T03:45:39.062Z,940.18
2017-02-05T03:46:39.044Z,940.25
2017-02-05T03:47:39.031Z,940.23
2017-02-05T03:48:39.015Z,940.23
2017-02-05T03:49:39.001Z,940.33
2017-02-05T03:50:38.985Z,940.27
2017-02-05T03:51:38.976Z,940.32
2017-02-05T03:52:38.954Z,940.29
2017-02-05T03:53:38.939Z,940.35
2017-02-05T03:54:38.924Z,940.34
2017-02-05T03:55:38.910Z,940.33
2017-02-05T03:56:38.893Z,940.29
2017-02-05T03:57:38.879Z,940.31
2017-02-05T03:58:38.862Z,940.37
2017-02-05T03:59:38.851Z,940.38
2017-02-05T04:00:38.833Z,940.35
2017-02-05T04:01:38.818Z,940.36
2017-02-05T04:02:38.802Z,940.39
2017-02-05T04:03:38.788Z,940.41
2017-02-05T04:04:38.772Z,940.39
2017-02-05T04:05:38.758Z,940.39
2017-02-05T04:06:38.742Z,940.37
2017-02-05T04:07:38.727Z,940.36
2017-02-05T04:08:38.712Z,940.37
2017-02-05T04:09:38.697Z,940.4
2017-02-05T04:10:38.684Z,940.42
2017-02-05T04:11:38.670Z,940.41
2017-02-05T04:12:38.653Z,940.47
2017-02-05T04:13:38.636Z,940.46
2017-02-05T04:14:38.622Z,940.46
2017-02-05T04:15:38.607Z,940.47
2017-02-05T04:16:38.591Z,940.45
2017-02-05T04:17:38.575Z,940.5
2017-02-05T04:18:38.561Z,940.55
2017-02-05T04:19:38.544Z,940.52
2017-02-05T04:20:38.531Z,940.61
2017-02-05T04:21:38.515Z,940.56
2017-02-05T04:22:38.499Z,940.61
2017-02-05T04:23:38.484Z,940.57
2017-02-05T04:24:38.468Z,940.63
2017-02-05T04:25:38.453Z,940.58
2017-02-05T04:26:38.440Z,940.61
2017-02-05T04:27:38.429Z,940.65
2017-02-05T04:28:38.408Z,940.63
2017-02-05T04:29:38.395Z,940.67
2017-02-05T04:30:38.378Z,940.66
2017-02-05T04:31:38.363Z,940.63
2017-02-05T04:32:38.347Z,940.63
2017-02-05T04:33:38.332Z,940.67
2017-02-05T04:34:38.318Z,940.64
2017-02-05T04:35:38.302Z,940.58
2017-02-05T04:36:38.287Z,940.63
2017-02-05T04:37:38.271Z,940.62
2017-02-05T04:38:38.257Z,940.64
2017-02-05T04:39:38.241Z,940.65
2017-02-05T04:40:38.226Z,940.62
2017-02-05T04:41:38.210Z,940.61
2017-02-05T04:42:38.197Z,940.64
2017-02-05T04:43:38.180Z,940.59
2017-02-05T04:44:38.167Z,940.54
2017-02-05T04:45:38.149Z,940.62
2017-02-05T04:46:38.138Z,940.6
2017-02-05T04:47:38.120Z,940.57
2017-02-05T04:48:38.104Z,940.57
2017-02-05T04:49:38.089Z,940.52
2017-02-05T04:50:38.074Z,940.56
2017-02-05T04:51:38.059Z,940.57
2017-02-05T04:52:38.043Z,940.59
2017-02-05T04:53:38.027Z,940.56
2017-02-05T04:54:38.014Z,940.52
2017-02-05T04:55:37.999Z,940.54
2017-02-05T04:56:38.046Z,940.46
2017-02-05T04:57:38.034Z,940.49
2017-02-05T04:58:38.002Z,940.57
2017-02-05T04:59:37.982Z,940.53
2017-02-05T05:00:37.922Z,940.52
2017-02-05T05:01:37.906Z,940.5
2017-02-05T05:02:37.898Z,940.58
2017-02-05T05:03:37.876Z,940.53
2017-02-05T05:04:37.862Z,940.57
2017-02-05T05:05:37.846Z,940.49
2017-02-05T05:06:37.831Z,940.54
2017-02-05T05:07:37.816Z,940.57
2017-02-05T05:08:37.801Z,940.57
2017-02-05T05:09:37.787Z,940.54
2017-02-05T05:10:37.801Z,940.59
2017-02-05T05:11:37.756Z,940.58
2017-02-05T05:12:37.740Z,940.58
2017-02-05T05:13:37.724Z,940.58
2017-02-05T05:14:37.709Z,940.59
2017-02-05T05:15:37.696Z,940.6
2017-02-05T05:16:37.679Z,940.58
2017-02-05T05:17:37.664Z,940.58
2017-02-05T05:18:37.649Z,940.62
2017-02-05T05:19:37.633Z,940.63
2017-02-05T05:20:37.617Z,940.65
2017-02-05T05:21:37.603Z,940.74
2017-02-05T05:22:37.586Z,940.71
2017-02-05T05:23:37.574Z,940.68
2017-02-05T05:24:37.557Z,940.67
2017-02-05T05:25:37.541Z,940.69
2017-02-05T05:26:37.526Z,940.72
2017-02-05T05:27:37.512Z,940.71
2017-02-05T05:28:37.498Z,940.72
2017-02-05T05:29:37.483Z,940.75
2017-02-05T05:30:37.467Z,940.8
2017-02-05T05:31:37.453Z,940.79
2017-02-05T05:32:37.437Z,940.74
2017-02-05T05:33:37.423Z,940.77
2017-02-05T05:34:37.408Z,940.74
2017-02-05T05:35:37.393Z,940.75
2017-02-05T05:36:37.375Z,940.75
2017-02-05T05:37:37.364Z,940.8
2017-02-05T05:38:37.345Z,940.76
2017-02-05T05:39:37.332Z,940.76
2017-02-05T05:40:37.317Z,940.85
2017-02-05T05:41:37.304Z,940.78
2017-02-05T05:42:37.287Z,940.81
2017-02-05T05:43:37.273Z,940.84
2017-02-05T05:44:37.257Z,940.87
2017-02-05T05:45:37.242Z,940.87
2017-02-05T05:46:37.228Z,940.87
2017-02-05T05:47:37.213Z,940.9
2017-02-05T05:48:37.196Z,940.94
2017-02-05T05:49:37.182Z,940.89
2017-02-05T05:50:37.165Z,940.87
2017-02-05T05:51:37.151Z,940.92
2017-02-05T05:52:37.135Z,940.92
2017-02-05T05:53:37.122Z,940.93
2017-02-05T05:54:37.103Z,940.91
2017-02-05T05:55:37.091Z,940.89
2017-02-05T05:56:37.074Z,940.93
2017-02-05T05:57:37.065Z,940.9
2017-02-05T05:58:37.045Z,940.94
2017-02-05T05:59:37.030Z,940.95
2017-02-05T06:00:37.015Z,940.93
2017-02-05T06:01:37.000Z,940.97
2017-02-05T06:02:36.982Z,940.92
2017-02-05T06:03:36.968Z,940.94
2017-02-05T06:04:36.954Z,940.92
2017-02-05T06:05:36.939Z,940.98
2017-02-05T06:06:36.923Z,940.96
2017-02-05T06:07:36.907Z,940.95
2017-02-05T06:08:36.892Z,941.01
2017-02-05T06:09:36.877Z,940.93
2017-02-05T06:10:36.861Z,940.97
2017-02-05T06:11:36.846Z,941
2017-02-05T06:12:36.833Z,940.98
2017-02-05T06:13:36.815Z,941.01
2017-02-05T06:14:36.800Z,941
2017-02-05T06:15:36.785Z,941.04
2017-02-05T06:16:36.768Z,941.03
2017-02-05T06:17:36.755Z,941.04
2017-02-05T06:18:36.741Z,941.05
2017-02-05T06:19:36.725Z,941.03
2017-02-05T06:20:36.709Z,941.07
2017-02-05T06:21:36.698Z,941.1
2017-02-05T06:22:36.679Z,941.06
2017-02-05T06:23:36.661Z,941.08
2017-02-05T06:24:36.648Z,941.09
2017-02-05T06:25:36.632Z,941.09
2017-02-05T06:26:36.620Z,941.1
2017-02-05T06:27:36.602Z,941.11
2017-02-05T06:28:36.586Z,941.06
2017-02-05T06:29:36.572Z,941.11
2017-02-05T06:30:36.557Z,941.11
2017-02-05T06:31:36.540Z,941.12
2017-02-05T06:32:36.526Z,941.22
2017-02-05T06:33:36.509Z,941.23
2017-02-05T06:34:36.496Z,941.29
2017-02-05T06:35:36.480Z,941.3
2017-02-05T06:36:36.466Z,941.28
2017-02-05T06:37:36.447Z,941.27
2017-02-05T06:38:36.432Z,941.27
2017-02-05T06:39:36.417Z,941.26
2017-02-05T06:40:36.401Z,941.32
2017-02-05T06:41:36.385Z,941.28
2017-02-05T06:42:36.405Z,941.31
2017-02-05T06:43:36.356Z,941.31
2017-02-05T06:44:36.345Z,941.32
2017-02-05T06:45:36.327Z,941.33
2017-02-05T06:46:36.313Z,941.34
2017-02-05T06:47:36.294Z,941.33
2017-02-05T06:48:36.281Z,941.37
2017-02-05T06:49:36.265Z,941.34
2017-02-05T06:50:36.249Z,941.33
2017-02-05T06:51:36.235Z,941.39
2017-02-05T06:52:36.217Z,941.46
2017-02-05T06:53:36.202Z,941.39
2017-02-05T06:54:36.187Z,941.35
2017-02-05T06:55:36.174Z,941.38
2017-02-05T06:56:36.157Z,941.33
2017-02-05T06:57:36.141Z,941.36
2017-02-05T06:58:36.126Z,941.34
2017-02-05T06:59:36.113Z,941.3
2017-02-05T07:00:36.095Z,941.32
2017-02-05T07:01:36.081Z,941.3
2017-02-05T07:02:36.065Z,941.39
2017-02-05T07:03:36.080Z,941.33
2017-02-05T07:04:36.035Z,941.37
2017-02-05T07:05:36.018Z,941.35
2017-02-05T07:06:36.005Z,941.38
2017-02-05T07:07:35.989Z,941.43
2017-02-05T07:08:35.974Z,941.39
2017-02-05T07:09:35.959Z,941.4
2017-02-05T07:10:35.943Z,941.38
2017-02-05T07:11:35.927Z,941.39
2017-02-05T07:12:35.912Z,941.39
2017-02-05T07:13:35.898Z,941.4
2017-02-05T07:14:35.881Z,941.36
2017-02-05T07:15:35.867Z,941.42
2017-02-05T07:16:35.851Z,941.42
2017-02-05T07:17:35.835Z,941.48
2017-02-05T07:18:35.819Z,941.47
2017-02-05T07:19:35.808Z,941.46
2017-02-05T07:20:35.790Z,941.45
2017-02-05T07:21:35.777Z,941.45
2017-02-05T07:22:35.761Z,941.44
2017-02-05T07:23:35.744Z,941.46
2017-02-05T07:24:35.730Z,941.43
2017-02-05T07:25:35.714Z,941.54
2017-02-05T07:26:35.700Z,941.5
2017-02-05T07:27:35.684Z,941.54
2017-02-05T07:28:35.670Z,941.55
2017-02-05T07:29:35.654Z,941.53
2017-02-05T07:30:35.636Z,941.53
2017-02-05T07:31:35.623Z,941.51
2017-02-05T07:32:35.609Z,941.5
2017-02-05T07:33:35.592Z,941.5
2017-02-05T07:34:35.577Z,941.53
2017-02-05T07:35:35.613Z,941.56
2017-02-05T07:36:35.546Z,941.53
2017-02-05T07:37:35.531Z,941.53
2017-02-05T07:38:35.518Z,941.53
2017-02-05T07:39:35.502Z,941.55
2017-02-05T07:40:35.487Z,941.49
2017-02-05T07:41:35.471Z,941.52
2017-02-05T07:42:35.455Z,941.48
2017-02-05T07:43:35.441Z,941.53
2017-02-05T07:44:35.426Z,941.51
2017-02-05T07:45:35.410Z,941.53
2017-02-05T07:46:35.394Z,941.56
2017-02-05T07:47:35.380Z,941.53
2017-02-05T07:48:35.364Z,941.53
2017-02-05T07:49:35.359Z,941.58
2017-02-05T07:50:35.333Z,941.57
2017-02-05T07:51:35.320Z,941.55
2017-02-05T07:52:35.303Z,941.58
2017-02-05T07:53:35.289Z,941.5
2017-02-05T07:54:35.273Z,941.57
2017-02-05T07:55:35.260Z,941.57
2017-02-05T07:56:35.243Z,941.59
2017-02-05T07:57:35.231Z,941.55
2017-02-05T07:58:35.213Z,941.54
2017-02-05T07:59:35.199Z,941.54
2017-02-05T08:00:35.184Z,941.57
2017-02-05T08:01:35.168Z,941.57
2017-02-05T08:02:35.153Z,941.59
2017-02-05T08:03:35.141Z,941.62
2017-02-05T08:04:35.121Z,941.63
2017-02-05T08:05:35.108Z,941.61
2017-02-05T08:06:35.092Z,941.64
2017-02-05T08:07:35.077Z,941.59
2017-02-05T08:08:35.063Z,941.65
2017-02-05T08:09:35.049Z,941.63
2017-02-05T08:10:35.033Z,941.63
2017-02-05T08:11:35.188Z,941.69
2017-02-05T08:12:35.002Z,941.7
2017-02-05T08:13:34.987Z,941.68
2017-02-05T08:14:34.972Z,941.7
2017-02-05T08:15:34.956Z,941.65
2017-02-05T08:16:34.942Z,941.64
2017-02-05T08:17:34.927Z,941.63
2017-02-05T08:18:34.910Z,941.62
2017-02-05T08:19:34.898Z,941.66
2017-02-05T08:20:34.883Z,941.61
2017-02-05T08:21:34.867Z,941.6
2017-02-05T08:22:34.852Z,941.63
2017-02-05T08:23:34.839Z,941.58
2017-02-05T08:24:34.819Z,941.61
2017-02-05T08:25:34.808Z,941.58
2017-02-05T08:26:34.791Z,941.59
2017-02-05T08:27:34.775Z,941.64
2017-02-05T08:28:34.759Z,941.61
2017-02-05T08:29:34.744Z,941.65
2017-02-05T08:30:34.730Z,941.62
2017-02-05T08:31:34.713Z,941.57
2017-02-05T08:32:34.699Z,941.59
2017-02-05T08:33:34.683Z,941.58
2017-02-05T08:34:34.669Z,941.61
2017-02-05T08:35:34.653Z,941.61
2017-02-05T08:36:34.638Z,941.6
2017-02-05T08:37:34.624Z,941.63
2017-02-05T08:38:34.634Z,941.61
2017-02-05T08:39:34.594Z,941.64
2017-02-05T08:40:34.580Z,941.63
2017-02-05T08:41:34.565Z,941.62
2017-02-05T08:42:34.549Z,941.58
2017-02-05T08:43:34.535Z,941.63
2017-02-05T08:44:34.521Z,941.61
2017-02-05T08:45:34.507Z,941.63
2017-02-05T08:46:34.490Z,941.64
2017-02-05T08:47:34.477Z,941.65
2017-02-05T08:48:34.462Z,941.59
2017-02-05T08:49:34.449Z,941.6
2017-02-05T08:50:34.433Z,941.67
2017-02-05T08:51:34.419Z,941.65
2017-02-05T08:52:34.403Z,941.66
2017-02-05T08:53:34.389Z,941.7
2017-02-05T08:54:34.373Z,941.71
2017-02-05T08:55:34.360Z,941.74
2017-02-05T08:56:34.343Z,941.77
2017-02-05T08:57:34.328Z,941.77
2017-02-05T08:58:34.314Z,941.73
2017-02-05T08:59:34.301Z,941.74
2017-02-05T09:00:34.284Z,941.71
2017-02-05T09:01:34.271Z,941.73
2017-02-05T09:02:34.256Z,941.7
2017-02-05T09:03:34.241Z,941.71
2017-02-05T09:04:34.225Z,941.7
2017-02-05T09:05:34.211Z,941.67
2017-02-05T09:06:34.196Z,941.67
2017-02-05T09:07:34.182Z,941.69
2017-02-05T09:08:34.167Z,941.7
2017-02-05T09:09:34.153Z,941.64
2017-02-05T09:10:34.137Z,941.66
2017-02-05T09:11:34.122Z,941.65
2017-02-05T09:12:34.108Z,941.63
2017-02-05T09:13:34.094Z,941.67
2017-02-05T09:14:34.081Z,941.65
2017-02-05T09:15:34.063Z,941.67
2017-02-05T09:16:34.051Z,941.62
2017-02-05T09:17:34.034Z,941.62
2017-02-05T09:18:34.021Z,941.59
2017-02-05T09:19:34.006Z,941.66
2017-02-05T09:20:33.992Z,941.62
2017-02-05T09:21:33.977Z,941.59
2017-02-05T09:22:33.961Z,941.65
2017-02-05T09:23:33.946Z,941.62
2017-02-05T09:24:33.932Z,941.6
2017-02-05T09:25:33.919Z,941.6
2017-02-05T09:26:33.904Z,941.6
2017-02-05T09:27:33.890Z,941.65
2017-02-05T09:28:33.874Z,941.62
2017-02-05T09:29:33.860Z,941.65
2017-02-05T09:30:33.845Z,941.63
2017-02-05T09:31:33.831Z,941.65
2017-02-05T09:32:33.816Z,941.64
2017-02-05T09:33:33.802Z,941.62
2017-02-05T09:34:33.788Z,941.55
2017-02-05T09:35:33.774Z,941.58
2017-02-05T09:36:33.759Z,941.64
2017-02-05T09:37:33.744Z,941.64
2017-02-05T09:38:33.728Z,941.74
2017-02-05T09:39:33.716Z,941.67
2017-02-05T09:40:33.701Z,941.62
2017-02-05T09:41:33.686Z,941.66
2017-02-05T09:42:33.671Z,941.67
2017-02-05T09:43:33.658Z,941.64
2017-02-05T09:44:33.641Z,941.61
2017-02-05T09:45:33.629Z,941.65
2017-02-05T09:46:33.615Z,941.65
2017-02-05T09:47:33.600Z,941.65
2017-02-05T09:48:33.585Z,941.63
2017-02-05T09:49:33.571Z,941.7
2017-02-05T09:50:33.556Z,941.63
2017-02-05T09:51:33.542Z,941.66
2017-02-05T09:52:33.530Z,941.64
2017-02-05T09:53:33.514Z,941.59
2017-02-05T09:54:33.499Z,941.54
2017-02-05T09:55:33.486Z,941.57
2017-02-05T09:56:33.469Z,941.55
2017-02-05T09:57:33.461Z,941.55
2017-02-05T09:58:33.443Z,941.54
2017-02-05T09:59:33.428Z,941.52
2017-02-05T10:00:33.412Z,941.53
2017-02-05T10:01:33.400Z,941.55
2017-02-05T10:02:33.386Z,941.54
2017-02-05T10:03:33.373Z,941.57
2017-02-05T10:04:33.357Z,941.57
2017-02-05T10:05:33.342Z,941.58
2017-02-05T10:06:33.327Z,941.66
2017-02-05T10:07:33.313Z,941.61
2017-02-05T10:08:33.300Z,941.67
2017-02-05T10:09:33.286Z,941.69
2017-02-05T10:10:33.272Z,941.66
2017-02-05T10:11:33.259Z,941.69
2017-02-05T10:12:33.248Z,941.69
2017-02-05T10:13:33.231Z,941.71
2017-02-05T10:14:33.216Z,941.73
2017-02-05T10:15:33.202Z,941.76
2017-02-05T10:16:33.190Z,941.75
2017-02-05T10:17:33.176Z,941.77
2017-02-05T10:18:33.161Z,941.74
2017-02-05T10:19:33.148Z,941.75
2017-02-05T10:20:33.134Z,941.74
2017-02-05T10:21:33.120Z,941.76
2017-02-05T10:22:33.108Z,941.77
2017-02-05T10:23:33.092Z,941.76
2017-02-05T10:24:33.080Z,941.73
2017-02-05T10:25:33.068Z,941.72
2017-02-05T10:26:33.053Z,941.68
2017-02-05T10:27:33.042Z,941.65
2017-02-05T10:28:33.026Z,941.69
2017-02-05T10:29:33.012Z,941.63
2017-02-05T10:30:33.001Z,941.66
2017-02-05T10:31:32.989Z,941.66
2017-02-05T10:32:32.973Z,941.71
2017-02-05T10:33:32.962Z,941.69
2017-02-05T10:34:32.947Z,941.71
2017-02-05T10:35:32.934Z,941.69
2017-02-05T10:36:32.921Z,941.73
2017-02-05T10:37:32.909Z,941.72
2017-02-05T10:38:32.895Z,941.74
2017-02-05T10:39:32.883Z,941.73
2017-02-05T10:40:32.869Z,941.75
2017-02-05T10:41:32.857Z,941.7
2017-02-05T10:42:32.855Z,941.71
2017-02-05T10:43:32.830Z,941.71
2017-02-05T10:44:32.818Z,941.7
2017-02-05T10:45:32.807Z,941.67
2017-02-05T10:46:32.792Z,941.69
2017-02-05T10:47:32.779Z,941.65
2017-02-05T10:48:32.767Z,941.64
2017-02-05T10:49:32.754Z,941.63
2017-02-05T10:50:32.741Z,941.61
2017-02-05T10:51:32.729Z,941.57
2017-02-05T10:52:32.716Z,941.6
2017-02-05T10:53:32.704Z,941.57
2017-02-05T10:54:32.691Z,941.54
2017-02-05T10:55:32.676Z,941.52
2017-02-05T10:56:32.666Z,941.53
2017-02-05T10:57:32.652Z,941.53
2017-02-05T10:58:32.640Z,941.53
2017-02-05T10:59:32.626Z,941.57
2017-02-05T11:00:32.613Z,941.55
2017-02-05T11:01:32.602Z,941.57
2017-02-05T11:02:32.589Z,941.63
2017-02-05T11:03:32.576Z,941.62
2017-02-05T11:04:32.565Z,941.59
2017-02-05T11:05:32.554Z,941.56
2017-02-05T11:06:32.538Z,941.56
2017-02-05T11:07:32.525Z,941.55
2017-02-05T11:08:32.555Z,941.51
2017-02-05T11:09:32.502Z,941.51
2017-02-05T11:10:32.490Z,941.5
2017-02-05T11:11:32.475Z,941.47
2017-02-05T11:12:32.462Z,941.46
2017-02-05T11:13:32.448Z,941.42
2017-02-05T11:14:32.439Z,941.41
2017-02-05T11:15:32.427Z,941.4
2017-02-05T11:16:32.411Z,941.44
2017-02-05T11:17:32.400Z,941.39
2017-02-05T11:18:32.389Z,941.44
2017-02-05T11:19:32.375Z,941.43
2017-02-05T11:20:32.364Z,941.43
2017-02-05T11:21:32.353Z,941.41
2017-02-05T11:22:32.339Z,941.41
2017-02-05T11:23:32.326Z,941.38
2017-02-05T11:24:32.315Z,941.41
2017-02-05T11:25:32.304Z,941.41
2017-02-05T11:26:32.293Z,941.41
2017-02-05T11:27:32.281Z,941.42
2017-02-05T11:28:32.271Z,941.39
2017-02-05T11:29:32.256Z,941.41
2017-02-05T11:30:32.246Z,941.44
2017-02-05T11:31:32.235Z,941.37
2017-02-05T11:32:32.222Z,941.32
2017-02-05T11:33:32.210Z,941.33
2017-02-05T11:34:32.200Z,941.31
2017-02-05T11:35:32.187Z,941.28
2017-02-05T11:36:32.176Z,941.32
2017-02-05T11:37:32.164Z,941.3
2017-02-05T11:38:32.151Z,941.29
2017-02-05T11:39:32.144Z,941.3
2017-02-05T11:40:32.130Z,941.33
2017-02-05T11:41:32.117Z,941.32
2017-02-05T11:42:32.108Z,941.32
2017-02-05T11:43:32.096Z,941.3
2017-02-05T11:44:32.088Z,941.32
2017-02-05T11:45:32.072Z,941.34
2017-02-05T11:46:32.061Z,941.27
2017-02-05T11:47:32.050Z,941.28
2017-02-05T11:48:32.041Z,941.31
2017-02-05T11:49:32.026Z,941.29
2017-02-05T11:50:32.017Z,941.35
2017-02-05T11:51:32.005Z,941.35
2017-02-05T11:52:31.993Z,941.34
2017-02-05T11:53:31.981Z,941.27
2017-02-05T11:54:31.971Z,941.31
2017-02-05T11:55:31.960Z,941.28
2017-02-05T11:56:31.949Z,941.24
2017-02-05T11:57:31.936Z,941.24
2017-02-05T11:58:31.927Z,941.24
2017-02-05T11:59:31.917Z,941.24
2017-02-05T12:00:31.905Z,941.2
2017-02-05T12:01:31.893Z,941.21
2017-02-05T12:02:31.883Z,941.17
2017-02-05T12:03:31.871Z,941.2
2017-02-05T12:04:31.859Z,941.22
2017-02-05T12:05:31.847Z,941.22
2017-02-05T12:06:31.839Z,941.27
2017-02-05T12:07:31.825Z,941.26
2017-02-05T12:08:31.816Z,941.21
2017-02-05T12:09:31.803Z,941.25
2017-02-05T12:10:31.792Z,941.24
2017-02-05T12:11:31.781Z,941.23
2017-02-05T12:12:31.768Z,941.24
2017-02-05T12:13:31.759Z,941.21
2017-02-05T12:14:31.747Z,941.24
2017-02-05T12:15:31.737Z,941.18
2017-02-05T12:16:31.726Z,941.23
2017-02-05T12:17:31.714Z,941.25
2017-02-05T12:18:31.702Z,941.2
2017-02-05T12:19:31.692Z,941.2
2017-02-05T12:20:31.682Z,941.21
2017-02-05T12:21:31.713Z,941.23
2017-02-05T12:22:31.656Z,941.18
2017-02-05T12:23:31.648Z,941.14
2017-02-05T12:24:31.636Z,941.14
2017-02-05T12:25:31.622Z,941.15
2017-02-05T12:26:31.610Z,941.13
2017-02-05T12:27:31.598Z,941.14
2017-02-05T12:28:31.587Z,941.13
2017-02-05T12:29:31.574Z,941.15
2017-02-05T12:30:31.564Z,941.12